Time;durP1;ratioP1;P1;durP2;ratioP2;P2;SDS_P1;SDS_P2;PMS_P1;PMS_P2;Temp;Humidity;BMP_temperature;BMP_pressure;BME280_temperature;BME280_humidity;BME280_pressure;Samples;Min_cycle;Max_cycle;Signal;HPM_P1;HPM_P2
2021/12/25 00:02:13;;;;;;;7.10;2.90;;;;;;;-1.46;70.51;99411.89;108539;1281;23053;-78
2021/12/25 00:04:43;;;;;;;3.70;2.20;;;;;;;-1.50;70.39;99418.20;108469;1282;22070;-78
2021/12/25 00:07:12;;;;;;;5.80;3.40;;;;;;;-1.58;70.11;99429.50;108578;1282;23724;-78
2021/12/25 00:09:45;;;;;;;;;;;;;;;-1.66;69.96;99438.57;108645;1275;21961;-77
2021/12/25 00:12:14;;;;;;;7.30;3.30;;;;;;;-1.81;69.87;99442.09;108901;1275;23046;-77
2021/12/25 00:14:44;;;;;;;4.30;2.80;;;;;;;-1.92;69.80;99447.00;109069;1275;22025;-78
2021/12/25 00:17:16;;;;;;;4.20;2.60;;;;;;;-2.01;69.70;99452.14;109018;1275;23598;-79
2021/12/25 00:19:46;;;;;;;4.80;2.60;;;;;;;-2.09;69.88;99459.92;108983;1275;21982;-80
2021/12/25 00:22:19;;;;;;;8.10;3.50;;;;;;;-2.18;69.68;99464.52;109039;1275;21973;-79
2021/12/25 00:25:02;;;;;;;4.80;2.60;;;;;;;-2.26;69.87;99471.84;108888;1275;21994;-77
2021/12/25 00:27:57;;;;;;;8.80;2.70;;;;;;;-2.36;69.65;99478.73;108456;1283;23704;-78
2021/12/25 00:30:38;;;;;;;5.40;2.50;;;;;;;-2.44;69.61;99482.45;108599;1283;22015;-78
2021/12/25 00:33:32;;;;;;;4.50;2.90;;;;;;;-2.49;69.74;99488.63;108467;1284;21995;-79
2021/12/25 00:35:59;;;;;;;4.70;2.70;;;;;;;-2.53;69.60;99500.09;108312;1282;216717;-79
2021/12/25 00:38:32;;;;;;;4.20;2.90;;;;;;;-2.54;69.70;99510.36;108490;1285;22018;-79
2021/12/25 00:41:05;;;;;;;5.70;2.70;;;;;;;-2.59;69.50;99515.52;108117;1287;22009;-78
2021/12/25 00:43:37;;;;;;;7.50;3.70;;;;;;;-2.66;69.45;99521.66;108236;1287;22035;-78
2021/12/25 00:46:12;;;;;;;5.30;3.10;;;;;;;-2.74;69.22;99530.02;108459;1282;22446;-78
2021/12/25 00:48:42;;;;;;;7.30;3.10;;;;;;;-2.83;69.17;99539.20;108142;1288;22235;-78
2021/12/25 00:51:12;;;;;;;6.50;2.70;;;;;;;-2.92;69.17;99549.66;108062;1288;22034;-78
2021/12/25 00:53:45;;;;;;;5.80;3.00;;;;;;;-3.03;69.06;99555.52;108149;1288;23051;-78
2021/12/25 00:56:18;;;;;;;6.50;2.90;;;;;;;-3.14;68.97;99559.66;108295;1288;21996;-79
2021/12/25 00:58:49;;;;;;;5.50;3.10;;;;;;;-3.18;69.03;99563.74;107785;1289;22755;-79
2021/12/25 01:01:19;;;;;;;7.40;3.00;;;;;;;-3.21;69.02;99575.84;108032;1288;23058;-79
2021/12/25 01:03:57;;;;;;;10.00;2.80;;;;;;;-3.22;69.14;99583.67;107979;1290;22013;-78
2021/12/25 01:06:27;;;;;;;4.30;2.30;;;;;;;-3.23;68.94;99586.96;108076;1283;23665;-78
2021/12/25 01:08:56;;;;;;;6.60;3.10;;;;;;;-3.25;69.01;99592.95;108251;1285;23216;-78
2021/12/25 01:11:32;;;;;;;7.10;2.50;;;;;;;-3.28;68.79;99595.73;108257;1285;21982;-77
2021/12/25 01:14:13;;;;;;;4.70;3.10;;;;;;;-3.33;68.73;99595.34;108099;1287;22007;-78
2021/12/25 01:26:03;;;;;;;7.70;2.90;;;;;;;-3.55;68.59;99628.11;108191;1288;21987;-78
2021/12/25 01:31:51;;;;;;;6.70;2.90;;;;;;;-3.63;68.39;99637.52;108469;1283;22018;-78
2021/12/25 01:37:36;;;;;;;6.80;2.80;;;;;;;-3.65;68.19;99649.70;108322;1284;21983;-79
2021/12/25 01:49:29;;;;;;;4.20;2.70;;;;;;;-3.85;68.08;99651.42;108373;1284;23012;-78
2021/12/25 01:52:06;;;;;;;6.70;3.30;;;;;;;-3.89;68.00;99653.56;108274;1288;22777;-78
2021/12/25 01:54:35;;;;;;;5.80;3.20;;;;;;;-3.95;67.82;99655.15;107972;1289;23720;-78
2021/12/25 01:57:05;;;;;;;7.90;3.50;;;;;;;-4.03;67.75;99659.24;107527;1295;22308;-78
2021/12/25 01:59:35;;;;;;;6.10;3.80;;;;;;;-4.11;67.72;99661.10;107540;1294;24845;-77
2021/12/25 02:02:07;;;;;;;9.90;4.30;;;;;;;-4.16;67.74;99667.05;107596;1295;23090;-77
2021/12/25 02:04:37;;;;;;;6.00;3.20;;;;;;;-4.18;67.83;99671.48;107842;1290;22081;-77
2021/12/25 02:07:07;;;;;;;4.30;3.30;;;;;;;-4.18;67.95;99678.56;107652;1297;22249;-77
2021/12/25 02:09:39;;;;;;;8.50;3.70;;;;;;;-4.20;67.85;99681.40;107445;1298;23605;-77
2021/12/25 02:12:11;;;;;;;9.90;3.50;;;;;;;-4.22;67.78;99688.57;107601;1295;22066;-77
2021/12/25 02:14:44;;;;;;;8.20;3.50;;;;;;;-4.23;67.92;99695.20;107763;1288;23615;-76
2021/12/25 02:20:12;;;;;;;8.10;3.80;;;;;;;-4.34;67.77;99701.98;108133;1288;22019;-76
2021/12/25 02:22:42;;;;;;;6.90;3.30;;;;;;;-4.40;67.82;99705.57;108079;1291;22113;-77
2021/12/25 02:25:13;;;;;;;7.70;3.60;;;;;;;-4.46;67.83;99703.53;107914;1285;22103;-77
2021/12/25 02:27:54;;;;;;;9.60;4.00;;;;;;;-4.50;67.70;99705.16;108298;1285;23255;-77
2021/12/25 02:30:25;;;;;;;9.30;4.20;;;;;;;-4.54;67.61;99706.39;108262;1284;23714;-76
2021/12/25 02:32:58;;;;;;;7.00;3.70;;;;;;;-4.56;67.63;99709.95;108070;1290;22001;-76
2021/12/25 02:35:30;;;;;;;8.70;4.10;;;;;;;-4.54;67.83;99715.52;107958;1290;23787;-78
2021/12/25 02:38:00;;;;;;;11.30;4.30;;;;;;;-4.52;67.88;99717.98;108122;1287;23698;-76
2021/12/25 02:40:30;;;;;;;9.10;5.10;;;;;;;-4.52;67.77;99718.85;108109;1287;22445;-80
2021/12/25 02:43:12;;;;;;;11.20;5.30;;;;;;;-4.56;67.71;99725.59;108404;1286;22039;-81
2021/12/25 02:45:45;;;;;;;9.40;5.20;;;;;;;-4.60;67.76;99732.19;108495;1286;22443;-81
2021/12/25 02:48:20;;;;;;;11.40;5.00;;;;;;;-4.65;67.84;99738.99;108635;1281;22114;-77
2021/12/25 02:50:50;;;;;;;9.50;5.20;;;;;;;-4.67;68.00;99738.94;108335;1282;23054;-76
2021/12/25 02:53:19;;;;;;;8.40;4.90;;;;;;;-4.66;68.04;99740.27;108431;1284;23634;-76
2021/12/25 02:55:49;;;;;;;9.00;5.40;;;;;;;-4.65;68.12;99741.39;108379;1283;24293;-78
2021/12/25 02:58:20;;;;;;;7.10;4.60;;;;;;;-4.63;67.98;99747.83;108398;1282;22758;-78
2021/12/25 03:01:08;;;;;;;8.20;5.20;;;;;;;-4.62;68.05;99748.10;108403;1283;22011;-78
2021/12/25 03:03:44;;;;;;;11.90;5.00;;;;;;;-4.63;67.89;99750.56;108460;1283;21979;-77
2021/12/25 03:06:15;;;;;;;6.10;4.20;;;;;;;-4.65;67.87;99750.16;108133;1286;21992;-78
2021/12/25 03:08:45;;;;;;;6.40;4.40;;;;;;;-4.67;67.85;99754.95;108087;1286;22001;-77
2021/12/25 03:11:16;;;;;;;9.00;4.50;;;;;;;-4.70;67.99;99754.92;108117;1286;23614;-77
2021/12/25 03:13:57;;;;;;;9.50;5.80;;;;;;;-4.74;68.06;99765.09;108110;1286;23853;-76
2021/12/25 03:16:28;;;;;;;7.80;5.10;;;;;;;-4.77;68.22;99769.05;108506;1281;23778;-77
2021/12/25 03:19:00;;;;;;;7.40;4.80;;;;;;;-4.79;68.33;99780.81;108472;1281;22013;-78
2021/12/25 03:21:32;;;;;;;12.50;5.70;;;;;;;-4.82;68.42;99784.77;108192;1288;23836;-76
2021/12/25 03:24:02;;;;;;;13.30;6.50;;;;;;;-4.86;68.42;99787.23;108055;1288;22058;-76
2021/12/25 03:26:33;;;;;;;17.20;7.10;;;;;;;-4.86;68.66;99787.92;108093;1288;22042;-76
2021/12/25 03:29:04;;;;;;;15.70;8.30;;;;;;;-4.84;68.80;99792.09;108054;1288;21996;-76
2021/12/25 03:31:38;;;;;;;15.40;7.90;;;;;;;-4.82;68.75;99796.13;108247;1285;22004;-77
2021/12/25 03:34:12;;;;;;;19.00;7.80;;;;;;;-4.81;68.70;99796.91;108462;1284;23080;-77
2021/12/25 03:36:47;;;;;;;11.20;6.70;;;;;;;-4.78;68.79;99796.77;108403;1283;22233;-77
2021/12/25 03:39:19;;;;;;;11.70;7.20;;;;;;;-4.80;68.64;99796.02;108451;1275;22027;-76
2021/12/25 03:41:55;;;;;;;16.80;7.90;;;;;;;-4.86;68.41;99798.41;108667;1274;22043;-76
2021/12/25 03:44:28;;;;;;;13.70;7.80;;;;;;;-4.91;68.56;99801.98;108750;1278;23068;-76
2021/12/25 03:47:10;;;;;;;17.90;8.90;;;;;;;-4.98;68.62;99799.90;108774;1275;22066;-76
2021/12/25 03:58:19;;;;;;;14.70;7.60;;;;;;;-5.21;68.63;99806.10;108837;1275;22258;-77
2021/12/25 04:00:58;;;;;;;17.10;8.20;;;;;;;-5.24;68.95;99813.85;108542;1283;21977;-77
2021/12/25 04:03:43;;;;;;;15.90;6.80;;;;;;;-5.25;68.98;99819.02;108601;1280;22173;-77
2021/12/25 04:06:13;;;;;;;13.40;7.50;;;;;;;-5.27;69.01;99818.42;108566;1281;21977;-77
2021/12/25 04:08:45;;;;;;;12.70;6.80;;;;;;;-5.29;68.95;99820.30;108541;1281;23678;-77
2021/12/25 04:11:27;;;;;;;12.50;7.70;;;;;;;-5.32;68.95;99824.56;108591;1281;22988;-76
2021/12/25 04:14:00;;;;;;;18.60;7.70;;;;;;;-5.37;68.96;99826.15;108607;1281;22258;-77
2021/12/25 04:16:34;;;;;;;16.00;7.20;;;;;;;-5.41;69.09;99829.63;108550;1281;21966;-75
2021/12/25 04:19:04;;;;;;;13.80;7.10;;;;;;;-5.46;69.23;99832.12;108700;1275;22008;-76
2021/12/25 04:21:36;;;;;;;14.30;8.00;;;;;;;-5.52;69.11;99829.37;108850;1275;22120;-76
2021/12/25 04:24:05;;;;;;;21.20;7.80;;;;;;;-5.59;69.31;99832.29;109014;1275;22296;-76
2021/12/25 04:26:39;;;;;;;13.80;8.00;;;;;;;-5.70;69.13;99830.94;109027;1275;21979;-77
2021/12/25 04:32:41;;;;;;;35.30;19.00;;;;;;;-5.84;69.25;99841.11;108901;1275;23689;-78
2021/12/25 05:03:16;;;;;;;27.70;15.80;;;;;;;-6.28;70.38;99873.60;108904;1273;22139;-77
2021/12/25 05:06:06;;;;;;;23.40;12.30;;;;;;;-6.30;70.54;99870.95;108998;1274;23679;-76
2021/12/25 05:08:42;;;;;;;23.70;13.10;;;;;;;-6.31;70.74;99877.71;108887;1274;24532;-76
2021/12/25 05:11:12;;;;;;;22.80;13.90;;;;;;;-6.28;70.79;99874.83;108841;1275;21987;-76
2021/12/25 05:13:43;;;;;;;27.50;12.60;;;;;;;-6.26;70.80;99875.94;108838;1275;23681;-76
2021/12/25 05:16:13;;;;;;;24.80;12.80;;;;;;;-6.25;70.71;99881.70;108829;1275;22479;-77
2021/12/25 05:18:43;;;;;;;21.50;11.60;;;;;;;-6.25;70.62;99881.86;108765;1275;22073;-76
2021/12/25 05:21:13;;;;;;;20.80;12.80;;;;;;;-6.25;70.73;99887.32;108873;1275;21985;-76
2021/12/25 05:23:48;;;;;;;27.70;12.60;;;;;;;-6.27;70.55;99893.45;108973;1275;21973;-76
2021/12/25 05:26:19;;;;;;;26.20;12.60;;;;;;;-6.32;70.53;99895.92;108927;1275;22018;-76
2021/12/25 05:28:58;;;;;;;27.50;15.50;;;;;;;-6.38;70.41;99905.63;108832;1274;23644;-76
2021/12/25 05:31:36;;;;;;;29.80;15.90;;;;;;;-6.45;70.48;99912.95;108803;1275;22704;-76
2021/12/25 05:34:32;;;;;;;32.00;17.40;;;;;;;-6.52;70.60;99918.08;108775;1277;23602;-75
2021/12/25 05:37:39;;;;;;;43.20;22.90;;;;;;;-6.59;70.63;99920.63;108598;1280;22911;-76
2021/12/25 05:40:22;;;;;;;46.30;28.10;;;;;;;-6.64;70.74;99924.81;108531;1280;22189;-77
2021/12/25 05:42:54;;;;;;;51.80;29.00;;;;;;;-6.67;70.75;99929.23;108609;1280;21998;-76
2021/12/25 05:45:26;;;;;;;45.50;28.50;;;;;;;-6.70;70.69;99931.05;108569;1281;22032;-79
2021/12/25 05:48:01;;;;;;;48.20;28.10;;;;;;;-6.72;70.75;99933.71;108317;1285;22364;-77
2021/12/25 05:50:49;;;;;;;38.20;23.20;;;;;;;-6.74;70.80;99940.99;108306;1282;21981;-76
2021/12/25 05:53:32;;;;;;;;;;;;;;;-6.75;70.85;99943.78;107833;1292;22055;-76
2021/12/25 05:56:20;;;;;;;23.80;14.40;;;;;;;-6.80;71.02;99950.34;108048;1291;22005;-76
2021/12/25 05:59:08;;;;;;;26.00;13.30;;;;;;;-6.79;71.12;99952.70;107987;1291;22057;-77
2021/12/25 06:02:01;;;;;;;32.80;12.80;;;;;;;-6.74;71.50;99955.03;107902;1291;23139;-76
2021/12/25 06:04:38;;;;;;;25.80;12.40;;;;;;;-6.69;71.69;99956.16;107933;1291;22391;-77
2021/12/25 06:07:11;;;;;;;21.60;12.90;;;;;;;-6.61;71.71;99959.82;108058;1287;23044;-77
2021/12/25 06:09:40;;;;;;;24.60;13.90;;;;;;;-6.61;71.40;99958.60;107598;1295;22013;-76
2021/12/25 06:12:16;;;;;;;25.70;14.30;;;;;;;-6.66;71.28;99965.95;107957;1281;22208;-77
2021/12/25 06:14:52;;;;;;;26.20;13.00;;;;;;;-6.71;71.18;99974.09;108642;1278;21983;-77
2021/12/25 06:17:49;;;;;;;23.10;12.00;;;;;;;-6.79;71.18;99972.23;108783;1278;23576;-77
2021/12/25 06:20:29;;;;;;;22.30;14.00;;;;;;;-6.85;71.31;99975.90;108485;1282;22043;-78
2021/12/25 06:22:59;;;;;;;20.10;11.10;;;;;;;-6.91;71.29;99977.88;108346;1286;22020;-77
2021/12/25 06:25:58;;;;;;;24.60;11.40;;;;;;;-6.98;71.25;99985.35;107808;1289;22304;-78
2021/12/25 06:28:47;;;;;;;22.70;11.80;;;;;;;-7.02;71.25;99990.86;108246;1287;23635;-77
2021/12/25 06:31:52;;;;;;;20.80;11.80;;;;;;;-7.07;71.15;99996.90;107605;1293;24415;-76
2021/12/25 06:34:48;;;;;;;29.10;12.30;;;;;;;-7.10;71.25;99997.34;107667;1292;23074;-77
2021/12/25 06:37:50;;;;;;;30.30;11.80;;;;;;;-7.12;71.18;99999.83;107666;1293;22494;-77
2021/12/25 06:40:31;;;;;;;22.40;12.20;;;;;;;-7.14;71.34;99994.42;107666;1288;22042;-76
2021/12/25 06:43:01;;;;;;;23.30;11.60;;;;;;;-7.16;71.17;99990.91;107942;1291;21994;-76
2021/12/25 06:45:31;;;;;;;26.60;12.80;;;;;;;-7.18;71.15;99999.73;108076;1287;22032;-75
2021/12/25 06:48:02;;;;;;;26.70;12.70;;;;;;;-7.21;71.25;99997.13;108430;1283;22026;-76
2021/12/25 06:50:50;;;;;;;26.90;13.00;;;;;;;-7.25;71.42;100001.92;108422;1283;24549;-76
2021/12/25 06:53:49;;;;;;;24.00;10.90;;;;;;;-7.32;71.37;100009.23;108364;1280;24320;-77
2021/12/25 06:56:34;;;;;;;26.20;12.90;;;;;;;-7.39;71.52;100011.21;108435;1284;22077;-76
2021/12/25 06:59:06;;;;;;;30.50;14.70;;;;;;;-7.43;71.68;100010.54;108326;1283;24411;-77
2021/12/25 07:01:42;;;;;;;38.40;15.70;;;;;;;-7.45;71.72;100008.92;108417;1283;22034;-76
2021/12/25 07:04:32;;;;;;;30.90;14.50;;;;;;;-7.47;71.65;100008.80;108433;1284;21985;-76
2021/12/25 07:07:32;;;;;;;31.40;13.40;;;;;;;-7.48;71.72;100007.98;109024;1271;22157;-76
2021/12/25 07:10:31;;;;;;;32.70;13.30;;;;;;;-7.49;71.71;100006.99;108653;1275;22988;-78
2021/12/25 07:13:15;;;;;;;34.50;15.90;;;;;;;-7.47;71.75;100008.29;108983;1274;22012;-76
2021/12/25 07:16:16;;;;;;;38.50;15.60;;;;;;;-7.46;71.85;100008.58;108880;1275;23066;-78
2021/12/25 07:19:12;;;;;;;31.20;14.20;;;;;;;-7.44;71.90;100016.05;108916;1274;23024;-79
2021/12/25 07:22:00;;;;;;;29.50;17.00;;;;;;;-7.39;72.16;100023.02;109094;1274;23846;-78
2021/12/25 07:25:08;;;;;;;30.20;16.90;;;;;;;-7.33;72.33;100021.58;108605;1280;23061;-77
2021/12/25 07:28:04;;;;;;;35.40;20.00;;;;;;;-7.26;72.40;100025.76;108583;1280;22131;-81
2021/12/25 07:30:35;;;;;;;35.60;19.50;;;;;;;-7.20;72.49;100023.61;108339;1285;21994;-79
2021/12/25 07:33:04;;;;;;;32.70;18.80;;;;;;;-7.15;72.54;100023.21;108359;1285;23808;-75
2021/12/25 07:35:33;;;;;;;34.70;15.00;;;;;;;-7.12;72.54;100020.87;108270;1285;23061;-73
2021/12/25 07:38:03;;;;;;;26.30;14.70;;;;;;;-7.12;72.53;100028.23;108456;1285;22049;-74
2021/12/25 07:40:34;;;;;;;26.20;14.60;;;;;;;-7.13;72.41;100028.64;108296;1285;22100;-74
2021/12/25 07:43:03;;;;;;;29.70;16.30;;;;;;;-7.15;72.44;100033.50;107754;1291;23633;-75
2021/12/25 07:45:52;;;;;;;43.50;21.00;;;;;;;-7.16;72.54;100034.75;107519;1296;23812;-74
2021/12/25 07:48:24;;;;;;;50.20;23.40;;;;;;;-7.16;72.66;100040.57;107298;1295;22544;-75
2021/12/25 07:50:57;;;;;;;45.10;22.60;;;;;;;-7.15;72.63;100039.63;107838;1294;22657;-75
2021/12/25 07:53:27;;;;;;;47.50;24.10;;;;;;;-7.12;72.59;100048.23;107821;1290;23711;-75
2021/12/25 07:55:56;;;;;;;41.40;20.80;;;;;;;-7.08;72.50;100043.30;107722;1294;23760;-75
2021/12/25 07:58:26;;;;;;;40.70;21.50;;;;;;;-7.04;72.69;100041.93;107692;1294;23905;-76
2021/12/25 08:00:59;;;;;;;34.90;17.20;;;;;;;-6.98;72.71;100045.61;108058;1285;22043;-76
2021/12/25 08:03:29;;;;;;;37.80;17.10;;;;;;;-6.92;72.80;100041.95;108109;1280;22020;-75
2021/12/25 08:05:59;;;;;;;35.80;17.20;;;;;;;-6.87;72.81;100038.82;108418;1284;22040;-76
2021/12/25 08:08:31;;;;;;;35.30;19.10;;;;;;;-6.80;73.01;100041.10;108393;1284;22023;-74
2021/12/25 08:11:03;;;;;;;;;;;;;;;-6.70;73.14;100040.00;108377;1284;22187;-75
2021/12/25 08:13:36;;;;;;;49.40;23.10;;;;;;;-6.68;73.13;100037.69;108441;1284;22028;-76
2021/12/25 08:16:05;;;;;;;43.30;22.00;;;;;;;-6.61;73.36;100045.44;108356;1280;22444;-75
2021/12/25 08:18:35;;;;;;;43.40;21.60;;;;;;;-6.51;73.46;100043.45;108504;1278;22175;-75
2021/12/25 08:21:37;;;;;;;37.70;19.40;;;;;;;-6.41;73.43;100048.12;108550;1278;22281;-76
2021/12/25 08:24:26;;;;;;;46.60;21.10;;;;;;;-6.35;73.29;100048.38;108750;1279;21999;-76
2021/12/25 08:27:13;;;;;;;46.30;24.80;;;;;;;-6.29;73.29;100050.55;108665;1278;21992;-75
2021/12/25 08:30:11;;;;;;;38.70;24.30;;;;;;;-6.23;73.51;100057.59;109034;1274;22025;-76
2021/12/25 08:33:16;;;;;;;;;;;;;;;-6.15;73.54;100068.55;108811;1276;21954;-76
2021/12/25 08:36:11;;;;;;;31.20;18.00;;;;;;;-6.18;73.47;100068.71;108494;1276;202555;-76
2021/12/25 08:38:40;;;;;;;27.80;18.60;;;;;;;-6.16;73.50;100071.36;108799;1278;22982;-76
2021/12/25 08:41:14;;;;;;;34.30;18.70;;;;;;;-6.14;73.19;100073.68;108697;1276;22009;-76
2021/12/25 08:43:48;;;;;;;31.30;18.00;;;;;;;-6.16;73.04;100073.91;108740;1276;24391;-74
2021/12/25 08:46:34;;;;;;;29.70;19.00;;;;;;;-6.11;73.11;100075.61;108653;1279;24072;-75
2021/12/25 08:49:08;;;;;;;27.40;18.30;;;;;;;-6.05;73.11;100078.23;108637;1277;22294;-75
2021/12/25 08:51:38;;;;;;;29.30;17.80;;;;;;;-5.94;73.32;100088.00;108714;1279;22004;-75
2021/12/25 08:54:13;;;;;;;45.70;30.10;;;;;;;-5.78;73.79;100089.30;108817;1275;21969;-75
2021/12/25 08:56:44;;;;;;;65.40;39.00;;;;;;;-5.63;73.50;100096.34;109050;1273;22011;-76
2021/12/25 08:59:14;;;;;;;59.00;38.00;;;;;;;-5.54;73.29;100100.55;109386;1274;22998;-76
2021/12/25 09:01:46;;;;;;;;;;;;;;;-5.49;72.92;100099.99;108998;1275;23557;-74
2021/12/25 09:04:16;;;;;;;61.80;35.40;;;;;;;-5.53;72.63;100103.09;109065;1273;24365;-75
2021/12/25 09:06:46;;;;;;;59.60;38.70;;;;;;;-5.49;72.71;100104.45;108895;1274;22906;-75
2021/12/25 09:09:16;;;;;;;64.20;37.20;;;;;;;-5.42;72.78;100106.52;108997;1275;23724;-76
2021/12/25 09:11:48;;;;;;;60.20;39.10;;;;;;;-5.37;72.57;100107.66;108950;1273;22178;-76
2021/12/25 09:14:26;;;;;;;60.20;35.70;;;;;;;-5.37;72.47;100115.02;108904;1273;23199;-76
2021/12/25 09:16:58;;;;;;;38.60;24.60;;;;;;;-5.33;72.48;100116.21;108828;1274;22740;-75
2021/12/25 09:19:29;;;;;;;41.50;23.90;;;;;;;-5.29;72.59;100109.66;109232;1274;23714;-74
2021/12/25 09:21:59;;;;;;;51.70;32.50;;;;;;;-5.24;72.59;100110.45;109004;1275;22539;-75
2021/12/25 09:24:28;;;;;;;63.50;39.90;;;;;;;-5.20;72.67;100116.64;108416;1284;22045;-76
2021/12/25 09:26:58;;;;;;;82.00;50.10;;;;;;;-5.12;72.70;100122.44;108478;1281;22744;-76
2021/12/25 09:29:28;;;;;;;89.30;52.40;;;;;;;-5.02;72.63;100126.05;108572;1281;21999;-76
2021/12/25 09:31:59;;;;;;;106.10;62.50;;;;;;;-4.89;72.72;100121.98;108420;1281;21996;-75
2021/12/25 09:34:29;;;;;;;87.10;48.80;;;;;;;-4.77;72.35;100129.63;108470;1281;22967;-76
2021/12/25 09:37:01;;;;;;;72.70;46.90;;;;;;;-4.68;72.11;100137.61;108452;1282;23706;-76
2021/12/25 09:39:31;;;;;;;69.70;44.60;;;;;;;-4.59;71.91;100136.29;108396;1283;21978;-75
2021/12/25 09:42:06;;;;;;;45.60;28.30;;;;;;;-4.47;72.02;100138.27;108791;1275;23776;-76
2021/12/25 09:44:38;;;;;;;52.80;33.70;;;;;;;-4.35;71.92;100141.11;108961;1275;23624;-76
2021/12/25 09:47:08;;;;;;;46.80;30.70;;;;;;;-4.29;71.63;100136.49;108829;1274;22430;-76
2021/12/25 09:49:37;;;;;;;58.90;38.60;;;;;;;-4.23;71.44;100141.20;109060;1275;24341;-75
2021/12/25 09:52:07;;;;;;;46.90;33.50;;;;;;;-4.15;71.43;100139.27;108909;1273;23758;-75
2021/12/25 09:54:37;;;;;;;50.70;33.80;;;;;;;-4.14;70.83;100141.22;108933;1275;22282;-75
2021/12/25 09:57:06;;;;;;;51.30;32.60;;;;;;;-4.10;70.80;100147.23;108862;1274;21972;-75
2021/12/25 09:59:39;;;;;;;48.30;32.70;;;;;;;-4.02;70.59;100154.55;108507;1278;23598;-76
2021/12/25 10:02:13;;;;;;;52.10;33.30;;;;;;;-3.98;70.29;100157.61;108438;1280;23524;-76
2021/12/25 10:04:55;;;;;;;95.50;59.10;;;;;;;-3.93;70.01;100159.92;108437;1281;23867;-75
2021/12/25 10:07:30;;;;;;;75.50;47.80;;;;;;;-3.87;70.07;100157.17;108278;1284;21991;-76
2021/12/25 10:10:05;;;;;;;63.90;38.00;;;;;;;-3.76;70.04;100157.16;108151;1288;21989;-76
2021/12/25 10:12:57;;;;;;;62.30;43.10;;;;;;;-3.68;69.96;100152.91;107989;1290;23719;-76
2021/12/25 10:15:29;;;;;;;61.80;39.50;;;;;;;-3.58;69.94;100149.44;107631;1294;22088;-76
2021/12/25 10:18:00;;;;;;;146.10;84.60;;;;;;;-3.54;69.56;100148.89;107886;1288;22952;-77
2021/12/25 10:20:33;;;;;;;104.20;58.80;;;;;;;-3.48;69.68;100149.45;107675;1292;21995;-77
2021/12/25 10:23:21;;;;;;;137.50;74.00;;;;;;;-3.37;69.64;100147.30;107725;1291;22032;-77
2021/12/25 10:26:02;;;;;;;262.60;122.80;;;;;;;-3.31;69.32;100143.30;108006;1285;22000;-76
2021/12/25 10:28:40;;;;;;;64.00;41.10;;;;;;;-3.18;69.63;100139.00;108071;1289;23735;-76
2021/12/25 10:31:16;;;;;;;57.80;37.20;;;;;;;-3.00;69.62;100139.02;107646;1295;21999;-77
2021/12/25 10:33:53;;;;;;;73.80;45.10;;;;;;;-2.82;69.50;100138.85;107107;1298;21987;-77
2021/12/25 10:36:35;;;;;;;70.90;43.70;;;;;;;-2.64;69.25;100140.23;107324;1297;22014;-78
2021/12/25 10:39:16;;;;;;;83.70;54.00;;;;;;;-2.52;68.65;100141.59;107539;1292;23752;-78
2021/12/25 10:42:08;;;;;;;62.20;39.60;;;;;;;-2.47;67.86;100146.47;107817;1292;23627;-76
2021/12/25 10:44:46;;;;;;;51.80;34.90;;;;;;;-2.47;67.48;100146.83;107622;1292;23745;-77
2021/12/25 10:47:24;;;;;;;115.60;69.00;;;;;;;-2.45;67.34;100144.83;107312;1294;23627;-77
2021/12/25 10:50:17;;;;;;;149.40;91.40;;;;;;;-2.40;67.29;100144.86;107755;1290;22005;-77
2021/12/25 10:52:48;;;;;;;69.60;44.30;;;;;;;-2.29;67.38;100142.33;108334;1281;22196;-76
2021/12/25 10:55:23;;;;;;;61.70;37.90;;;;;;;-2.19;67.20;100146.42;108514;1278;22918;-77
2021/12/25 10:57:59;;;;;;;54.60;34.80;;;;;;;-2.09;66.95;100142.70;108732;1278;22207;-77
2021/12/25 11:00:34;;;;;;;73.60;43.50;;;;;;;-1.96;67.36;100142.27;108720;1278;22975;-76
2021/12/25 11:03:10;;;;;;;75.30;46.80;;;;;;;-1.82;66.80;100138.85;108742;1274;22743;-77
2021/12/25 11:05:46;;;;;;;60.60;38.80;;;;;;;-1.77;65.89;100135.07;108940;1274;22097;-77
2021/12/25 11:08:20;;;;;;;53.60;34.40;;;;;;;-1.73;65.38;100137.19;108691;1276;23605;-78
2021/12/25 11:11:15;;;;;;;49.60;34.80;;;;;;;-1.68;65.18;100136.01;108527;1279;23769;-76
2021/12/25 11:13:57;;;;;;;45.50;30.80;;;;;;;-1.61;65.19;100132.66;108291;1287;23035;-76
2021/12/25 11:16:35;;;;;;;84.20;55.80;;;;;;;-1.52;65.11;100136.25;108178;1287;23762;-76
2021/12/25 11:19:15;;;;;;;73.80;51.50;;;;;;;-1.51;64.52;100130.99;108144;1287;21963;-77
2021/12/25 11:21:49;;;;;;;75.10;52.90;;;;;;;-1.50;64.31;100134.06;108376;1284;22002;-77
2021/12/25 11:24:23;;;;;;;60.50;42.40;;;;;;;-1.45;64.54;100128.37;108458;1285;22071;-77
2021/12/25 11:27:02;;;;;;;51.10;31.10;;;;;;;-1.46;64.01;100125.13;108268;1283;22625;-76
2021/12/25 11:29:37;;;;;;;85.40;54.20;;;;;;;-1.52;63.61;100122.25;108445;1283;22097;-76
2021/12/25 11:32:12;;;;;;;101.50;74.50;;;;;;;-1.57;63.49;100126.55;108321;1285;21992;-76
2021/12/25 11:34:44;;;;;;;88.00;58.30;;;;;;;-1.62;63.26;100128.63;108601;1283;23723;-75
2021/12/25 11:37:16;;;;;;;55.30;34.90;;;;;;;-1.66;63.12;100134.86;108426;1284;21997;-77
2021/12/25 11:39:52;;;;;;;77.00;49.40;;;;;;;-1.73;62.77;100133.40;107835;1287;23046;-76
2021/12/25 11:42:29;;;;;;;80.00;51.00;;;;;;;-1.78;62.74;100122.64;107866;1289;23138;-77
2021/12/25 11:45:14;;;;;;;69.90;43.50;;;;;;;-1.83;62.64;100125.23;107964;1289;22002;-77
2021/12/25 11:47:51;;;;;;;56.00;33.40;;;;;;;-1.89;62.57;100127.48;108270;1289;21970;-76
2021/12/25 11:50:31;;;;;;;66.50;42.40;;;;;;;-1.95;62.44;100131.79;108164;1282;23606;-76
2021/12/25 11:53:25;;;;;;;69.00;43.20;;;;;;;-2.01;62.47;100137.72;108210;1288;22771;-78
2021/12/25 11:58:57;;;;;;;75.40;48.60;;;;;;;-2.21;62.42;100138.70;107941;1287;22007;-76
2021/12/25 12:01:48;;;;;;;76.10;46.20;;;;;;;-2.31;62.33;100139.71;107807;1290;22054;-77
2021/12/25 12:04:26;;;;;;;84.30;53.40;;;;;;;-2.43;62.28;100143.66;107841;1291;22033;-75
2021/12/25 12:06:58;;;;;;;69.00;45.40;;;;;;;-2.55;62.33;100144.22;108103;1291;23861;-76
2021/12/25 12:10:04;;;;;;;70.00;41.20;;;;;;;-2.63;62.80;100148.32;107698;1293;22046;-76
2021/12/25 12:13:27;;;;;;;64.80;38.60;;;;;;;-2.67;62.91;100152.83;107794;1291;23638;-78
2021/12/25 12:16:41;;;;;;;114.20;63.30;;;;;;;-2.74;62.88;100146.70;107868;1288;23015;-76
2021/12/25 12:19:41;;;;;;;84.00;47.50;;;;;;;-2.76;63.17;100144.25;108023;1288;23039;-76
2021/12/25 12:25:30;;;;;;;59.50;37.20;;;;;;;-2.70;63.22;100154.92;108145;1287;22750;-76
2021/12/25 12:28:02;;;;;;;51.50;32.60;;;;;;;-2.81;62.73;100155.52;108244;1288;23081;-76
2021/12/25 12:30:45;;;;;;;60.50;37.50;;;;;;;-2.89;63.08;100154.55;108179;1284;22006;-81
2021/12/25 12:33:14;;;;;;;55.10;33.60;;;;;;;-2.89;63.43;100151.99;108257;1281;22006;-76
2021/12/25 12:35:50;;;;;;;51.10;32.00;;;;;;;-2.88;63.69;100157.64;108837;1280;21978;-76
2021/12/25 12:38:39;;;;;;;52.80;33.60;;;;;;;-2.87;63.80;100159.65;108679;1280;21986;-76
2021/12/25 12:41:32;;;;;;;57.10;33.40;;;;;;;-2.88;63.72;100159.71;108681;1278;23586;-78
2021/12/25 12:44:24;;;;;;;52.60;31.10;;;;;;;-2.94;63.60;100161.27;108916;1274;21981;-79
2021/12/25 12:47:04;;;;;;;58.00;36.50;;;;;;;-2.99;63.69;100163.46;109139;1273;21988;-75
2021/12/25 12:49:39;;;;;;;59.30;33.20;;;;;;;-3.03;63.76;100158.49;109081;1275;22447;-77
2021/12/25 12:52:37;;;;;;;48.60;29.20;;;;;;;-3.03;63.80;100165.23;109035;1274;23004;-76
2021/12/25 12:55:32;;;;;;;53.50;30.10;;;;;;;-3.07;63.59;100164.23;109094;1275;21992;-77
2021/12/25 12:58:11;;;;;;;49.00;26.60;;;;;;;-3.13;63.52;100170.45;109004;1274;21983;-76
2021/12/25 13:00:48;;;;;;;36.90;22.40;;;;;;;-3.17;63.60;100170.13;108957;1275;23529;-76
2021/12/25 13:03:17;;;;;;;39.30;22.70;;;;;;;-3.20;63.65;100167.73;108764;1275;24316;-76
2021/12/25 13:05:54;;;;;;;39.90;22.50;;;;;;;-3.25;63.78;100168.66;109062;1275;22026;-76
2021/12/25 13:08:33;;;;;;;39.10;25.10;;;;;;;-3.32;63.70;100166.09;108851;1275;21986;-76
2021/12/25 13:11:16;;;;;;;43.30;25.20;;;;;;;-3.39;63.84;100168.77;108512;1283;22002;-76